Time;durP1;ratioP1;P1;durP2;ratioP2;P2;SDS_P1;SDS_P2;PMS_P1;PMS_P2;Temp;Humidity;BMP_temperature;BMP_pressure;BME280_temperature;BME280_humidity;BME280_pressure;Samples;Min_cycle;Max_cycle;Signal;HPM_P1;HPM_P2
2022/11/28 00:01:43;;;;;;;22.10;13.18;;;;;;;;;;5093869;28;20158;-67
2022/11/28 00:04:08;;;;;;;18.83;13.23;;;;;;;;;;5093765;28;20016;-66
2022/11/28 00:06:38;;;;;;;20.17;14.25;;;;;;;;;;5094410;28;20035;-66
2022/11/28 00:09:05;;;;;;;18.90;13.50;;;;;;;;;;5094233;28;20039;-66
2022/11/28 00:11:31;;;;;;;16.85;12.40;;;;;;;;;;5094465;28;20020;-68
2022/11/28 00:13:56;;;;;;;18.60;12.60;;;;;;;;;;5094239;28;20521;-68
2022/11/28 00:16:22;;;;;;;18.20;12.88;;;;;;;;;;5093862;28;20040;-67
2022/11/28 00:18:49;;;;;;;20.08;13.20;;;;;;;;;;5094304;28;20032;-69
2022/11/28 00:21:14;;;;;;;21.40;13.43;;;;;;;;;;5092690;28;20035;-67
2022/11/28 00:23:41;;;;;;;23.35;14.82;;;;;;;;;;5094133;28;20036;-67
2022/11/28 00:26:07;;;;;;;21.38;14.18;;;;;;;;;;5093960;28;20107;-67
2022/11/28 00:28:33;;;;;;;22.45;14.60;;;;;;;;;;5093831;28;20116;-67
2022/11/28 00:30:58;;;;;;;19.90;13.60;;;;;;;;;;5093901;28;20095;-73
2022/11/28 00:33:24;;;;;;;22.15;13.80;;;;;;;;;;5094053;28;20040;-72
2022/11/28 00:35:50;;;;;;;22.10;13.98;;;;;;;;;;5093770;28;20351;-72
2022/11/28 00:38:16;;;;;;;22.00;13.50;;;;;;;;;;5093839;28;20143;-71
2022/11/28 00:40:41;;;;;;;20.92;13.43;;;;;;;;;;5097035;28;20020;-74
2022/11/28 00:43:06;;;;;;;20.02;13.00;;;;;;;;;;5098299;28;20036;-74
2022/11/28 00:45:32;;;;;;;19.27;13.00;;;;;;;;;;5098048;28;20103;-75
2022/11/28 00:47:57;;;;;;;18.33;12.93;;;;;;;;;;5097828;28;20032;-74
2022/11/28 00:50:22;;;;;;;19.33;13.45;;;;;;;;;;5097518;28;20031;-74
2022/11/28 00:52:49;;;;;;;19.40;13.15;;;;;;;;;;5097693;28;20100;-74
2022/11/28 00:55:14;;;;;;;20.65;14.40;;;;;;;;;;5097923;28;20024;-72
2022/11/28 00:57:40;;;;;;;23.77;15.55;;;;;;;;;;5096202;28;20024;-74
2022/11/28 01:00:06;;;;;;;28.27;16.25;;;;;;;;;;5114404;22;20062;-67
2022/11/28 01:02:31;;;;;;;24.20;16.10;;;;;;;;;;5117504;28;20034;-68
2022/11/28 01:04:57;;;;;;;29.92;17.45;;;;;;;;;;5117767;28;20028;-66
2022/11/28 01:07:22;;;;;;;27.05;15.93;;;;;;;;;;5117812;28;20024;-68
2022/11/28 01:09:48;;;;;;;25.17;15.13;;;;;;;;;;5117895;28;20098;-66
2022/11/28 01:12:13;;;;;;;24.27;15.63;;;;;;;;;;5117623;28;20461;-66
2022/11/28 01:14:38;;;;;;;20.83;13.65;;;;;;;;;;5099118;28;20022;-67
2022/11/28 01:17:04;;;;;;;19.27;13.45;;;;;;;;;;5099015;28;20077;-66
2022/11/28 01:19:29;;;;;;;19.38;14.40;;;;;;;;;;5117222;28;20026;-67
2022/11/28 01:21:54;;;;;;;22.33;15.05;;;;;;;;;;5099047;28;20028;-67
2022/11/28 01:24:20;;;;;;;22.77;14.68;;;;;;;;;;5099275;28;20023;-68
2022/11/28 01:26:45;;;;;;;20.40;14.27;;;;;;;;;;5099028;28;20027;-67
2022/11/28 01:29:11;;;;;;;21.27;14.77;;;;;;;;;;5099127;28;20062;-68
2022/11/28 01:31:36;;;;;;;22.42;15.80;;;;;;;;;;5117041;28;20066;-68
2022/11/28 01:34:02;;;;;;;21.58;15.15;;;;;;;;;;5117074;28;20078;-69
2022/11/28 01:36:27;;;;;;;21.70;14.77;;;;;;;;;;5116843;28;20461;-69
2022/11/28 01:38:53;;;;;;;22.17;15.55;;;;;;;;;;5116980;28;20450;-69
2022/11/28 01:41:20;;;;;;;21.55;15.40;;;;;;;;;;5116925;28;20043;-68
2022/11/28 01:43:57;;;;;;;23.70;15.50;;;;;;;;;;5098493;28;20023;-68
2022/11/28 01:46:23;;;;;;;24.35;15.07;;;;;;;;;;5116855;28;20093;-67
2022/11/28 01:48:49;;;;;;;20.73;14.38;;;;;;;;;;5117220;28;20024;-69
2022/11/28 01:51:14;;;;;;;23.05;14.90;;;;;;;;;;5115365;28;20378;-69
2022/11/28 01:53:41;;;;;;;22.25;14.43;;;;;;;;;;5116674;28;20102;-67
2022/11/28 01:56:27;;;;;;;20.88;14.30;;;;;;;;;;5116496;28;20071;-68
2022/11/28 01:58:55;;;;;;;21.23;14.43;;;;;;;;;;5116483;28;20122;-68
2022/11/28 02:01:23;;;;;;;25.77;16.10;;;;;;;;;;5094576;28;20048;-67
2022/11/28 02:03:49;;;;;;;25.15;15.93;;;;;;;;;;5096020;28;20034;-68
2022/11/28 02:06:16;;;;;;;30.75;17.13;;;;;;;;;;5096078;28;20012;-69
2022/11/28 02:08:42;;;;;;;27.20;16.65;;;;;;;;;;5095829;28;20055;-68
2022/11/28 02:11:07;;;;;;;28.17;16.48;;;;;;;;;;5096435;28;20397;-68
2022/11/28 02:13:46;;;;;;;26.60;16.48;;;;;;;;;;5098898;23;20414;-66
2022/11/28 02:16:34;;;;;;;24.13;15.60;;;;;;;;;;5095819;28;20354;-68
2022/11/28 02:19:23;;;;;;;24.30;15.45;;;;;;;;;;5084821;28;20051;-67
2022/11/28 02:21:48;;;;;;;22.00;15.40;;;;;;;;;;5095436;28;20122;-69
2022/11/28 02:24:20;;;;;;;23.95;14.68;;;;;;;;;;5095595;28;20128;-67
2022/11/28 02:26:45;;;;;;;21.50;14.63;;;;;;;;;;5077488;28;20024;-69
2022/11/28 02:29:29;;;;;;;18.97;12.90;;;;;;;;;;5095591;28;20520;-69
2022/11/28 02:32:09;;;;;;;17.00;12.50;;;;;;;;;;5095518;28;20282;-69
2022/11/28 02:34:34;;;;;;;19.48;12.98;;;;;;;;;;5095729;28;20055;-68
2022/11/28 02:37:14;;;;;;;25.70;18.60;;;;;;;;;;5095638;28;20454;-66
2022/11/28 02:39:54;;;;;;;24.00;14.80;;;;;;;;;;5077711;28;20028;-66
2022/11/28 02:42:29;;;;;;;23.27;15.50;;;;;;;;;;5095358;28;20101;-67
2022/11/28 02:44:59;;;;;;;21.42;14.20;;;;;;;;;;5095297;28;20028;-66
2022/11/28 02:47:42;;;;;;;18.63;12.45;;;;;;;;;;5095121;28;20363;-67
2022/11/28 02:50:10;;;;;;;17.88;11.77;;;;;;;;;;5095369;28;20024;-67
2022/11/28 02:52:41;;;;;;;17.52;12.35;;;;;;;;;;5095701;28;20091;-68
2022/11/28 02:55:06;;;;;;;;;;;;;;;;;;5095592;28;20118;-69
2022/11/28 02:57:39;;;;;;;17.87;12.37;;;;;;;;;;5077366;28;19955;-68
2022/11/28 03:00:23;;;;;;;17.58;11.85;;;;;;;;;;5094786;28;20032;-67
2022/11/28 03:02:58;;;;;;;16.52;11.40;;;;;;;;;;5076669;28;20051;-69
2022/11/28 03:05:29;;;;;;;16.58;11.80;;;;;;;;;;5095217;28;20450;-68
2022/11/28 03:08:09;;;;;;;18.15;12.13;;;;;;;;;;5094727;28;20028;-68
2022/11/28 03:10:37;;;;;;;16.88;11.65;;;;;;;;;;5094736;28;20115;-69
2022/11/28 03:13:10;;;;;;;18.38;12.80;;;;;;;;;;5094639;28;20028;-69
2022/11/28 03:15:43;;;;;;;16.25;11.98;;;;;;;;;;5094794;28;20081;-70
2022/11/28 03:18:08;;;;;;;16.77;11.88;;;;;;;;;;5095573;28;20030;-67
2022/11/28 03:20:40;;;;;;;17.63;11.70;;;;;;;;;;5076859;28;20019;-68
2022/11/28 03:23:08;;;;;;;17.67;12.20;;;;;;;;;;5094503;28;20028;-68
2022/11/28 03:25:40;;;;;;;17.75;13.85;;;;;;;;;;5076450;28;20020;-68
2022/11/28 03:28:10;;;;;;;18.90;13.43;;;;;;;;;;5094638;28;20020;-68
2022/11/28 03:30:48;;;;;;;18.45;12.32;;;;;;;;;;5094306;28;20462;-68
2022/11/28 03:33:15;;;;;;;72.05;53.28;;;;;;;;;;5094859;28;20059;-67
2022/11/28 03:35:45;;;;;;;137.23;77.93;;;;;;;;;;5094714;28;20076;-68
2022/11/28 03:38:19;;;;;;;283.08;150.27;;;;;;;;;;5094205;28;20036;-67
2022/11/28 03:40:46;;;;;;;333.58;168.98;;;;;;;;;;5094448;28;20121;-68
2022/11/28 03:43:14;;;;;;;205.43;118.35;;;;;;;;;;5094642;28;20027;-68
2022/11/28 03:45:42;;;;;;;31.80;21.98;;;;;;;;;;5094246;28;20028;-68
2022/11/28 03:48:10;;;;;;;75.05;57.55;;;;;;;;;;5094204;28;20016;-68
2022/11/28 03:50:44;;;;;;;33.47;26.90;;;;;;;;;;5076275;28;20028;-67
2022/11/28 03:53:21;;;;;;;25.17;18.33;;;;;;;;;;5094357;28;20032;-68
2022/11/28 03:55:49;;;;;;;21.30;14.85;;;;;;;;;;5094098;28;20016;-68
2022/11/28 03:58:17;;;;;;;21.65;16.10;;;;;;;;;;5094180;28;20542;-67
2022/11/28 04:01:09;;;;;;;25.25;15.45;;;;;;;;;;5094458;28;20036;-69
2022/11/28 04:03:37;;;;;;;126.03;77.20;;;;;;;;;;5062538;28;20039;-68
2022/11/28 04:06:23;;;;;;;158.25;89.82;;;;;;;;;;5093844;28;20081;-67
2022/11/28 04:08:54;;;;;;;34.35;23.20;;;;;;;;;;5035864;28;20044;-74
2022/11/28 04:11:24;;;;;;;155.88;82.85;;;;;;;;;;5094342;28;20031;-75
2022/11/28 04:13:55;;;;;;;82.25;45.38;;;;;;;;;;5074511;28;20036;-75
2022/11/28 04:16:33;;;;;;;34.10;22.27;;;;;;;;;;5074725;28;20462;-75
2022/11/28 04:19:01;;;;;;;68.25;47.03;;;;;;;;;;5093360;28;20454;-75
2022/11/28 04:21:31;;;;;;;45.17;30.35;;;;;;;;;;5092910;28;20023;-74
2022/11/28 04:23:59;;;;;;;79.63;50.60;;;;;;;;;;5093497;28;20031;-74
2022/11/28 04:26:35;;;;;;;43.28;28.98;;;;;;;;;;5074575;28;20416;-74
2022/11/28 04:29:05;;;;;;;32.70;22.55;;;;;;;;;;5092760;28;20478;-73
2022/11/28 04:31:31;;;;;;;;;;;;;;;;;;5093216;28;20064;-73
2022/11/28 04:33:58;;;;;;;204.57;103.35;;;;;;;;;;5092825;28;19915;-74
2022/11/28 04:36:24;;;;;;;96.28;54.20;;;;;;;;;;5092640;28;20103;-73
2022/11/28 04:38:55;;;;;;;43.55;27.25;;;;;;;;;;5092810;28;20023;-73
2022/11/28 04:41:23;;;;;;;184.20;105.60;;;;;;;;;;5092649;28;20074;-72
2022/11/28 04:43:53;;;;;;;75.88;44.70;;;;;;;;;;5092623;28;20070;-74
2022/11/28 04:46:25;;;;;;;88.05;48.70;;;;;;;;;;5092809;28;20032;-73
2022/11/28 04:48:51;;;;;;;128.82;75.22;;;;;;;;;;5092493;28;20170;-73
2022/11/28 04:51:18;;;;;;;56.67;35.67;;;;;;;;;;5092419;28;20070;-72
2022/11/28 04:53:44;;;;;;;111.43;68.50;;;;;;;;;;5074348;28;20393;-74
2022/11/28 04:56:15;;;;;;;74.80;48.80;;;;;;;;;;5092409;28;20016;-74
2022/11/28 04:58:43;;;;;;;42.95;28.25;;;;;;;;;;5092597;28;20028;-73
2022/11/28 05:01:10;;;;;;;51.58;31.00;;;;;;;;;;5092730;28;20035;-73
2022/11/28 05:03:37;;;;;;;24.98;16.92;;;;;;;;;;5074549;28;20085;-75
2022/11/28 05:06:03;;;;;;;54.90;34.72;;;;;;;;;;5092261;28;20058;-74
2022/11/28 05:08:28;;;;;;;66.35;40.45;;;;;;;;;;5092383;28;20051;-73
2022/11/28 05:10:53;;;;;;;37.55;26.80;;;;;;;;;;5092116;28;20085;-74
2022/11/28 05:13:19;;;;;;;33.13;24.25;;;;;;;;;;5046003;28;1320495;-74
2022/11/28 05:15:45;;;;;;;40.17;24.70;;;;;;;;;;5096403;22;20475;-69
2022/11/28 05:18:10;;;;;;;46.40;29.88;;;;;;;;;;5093450;28;20028;-68
2022/11/28 05:20:36;;;;;;;38.67;26.55;;;;;;;;;;5093318;28;20031;-68
2022/11/28 05:23:02;;;;;;;24.55;17.95;;;;;;;;;;5075639;28;20034;-69
2022/11/28 05:25:27;;;;;;;22.13;16.70;;;;;;;;;;5076025;28;20038;-68
2022/11/28 05:27:53;;;;;;;24.67;17.98;;;;;;;;;;5074967;28;20032;-66
2022/11/28 05:30:18;;;;;;;27.38;20.45;;;;;;;;;;5083887;28;20040;-67
2022/11/28 05:32:43;;;;;;;58.42;41.00;;;;;;;;;;5095717;28;20022;-68
2022/11/28 05:35:09;;;;;;;44.22;30.85;;;;;;;;;;5097074;28;20020;-69
2022/11/28 05:37:34;;;;;;;53.08;37.78;;;;;;;;;;5097189;28;20057;-68
2022/11/28 05:40:00;;;;;;;36.50;23.65;;;;;;;;;;5095467;28;20032;-67
2022/11/28 05:42:27;;;;;;;32.85;23.00;;;;;;;;;;5078156;28;20020;-65
2022/11/28 05:44:52;;;;;;;59.72;40.28;;;;;;;;;;5078315;28;20082;-65
2022/11/28 05:47:18;;;;;;;31.08;21.45;;;;;;;;;;5096247;28;20097;-67
2022/11/28 05:49:45;;;;;;;31.50;22.25;;;;;;;;;;5077957;28;20120;-67
2022/11/28 05:52:10;;;;;;;34.20;23.35;;;;;;;;;;5095435;28;20454;-67
2022/11/28 05:54:35;;;;;;;33.33;22.17;;;;;;;;;;5077442;28;20024;-67
2022/11/28 05:57:01;;;;;;;30.42;19.25;;;;;;;;;;5077283;28;20016;-64
2022/11/28 05:59:27;;;;;;;43.83;28.60;;;;;;;;;;5077780;28;20381;-66
2022/11/28 06:01:52;;;;;;;34.28;22.00;;;;;;;;;;5095532;28;20027;-67
2022/11/28 06:04:17;;;;;;;31.10;19.75;;;;;;;;;;5095188;28;20032;-68
2022/11/28 06:06:43;;;;;;;39.97;27.25;;;;;;;;;;5095388;28;20031;-68
2022/11/28 06:09:08;;;;;;;26.88;18.63;;;;;;;;;;5095527;28;20375;-67
2022/11/28 06:11:34;;;;;;;26.52;17.88;;;;;;;;;;5095236;28;20024;-65
2022/11/28 06:14:01;;;;;;;52.85;35.45;;;;;;;;;;5077180;28;20027;-65
2022/11/28 06:16:27;;;;;;;36.30;26.70;;;;;;;;;;5095024;28;20047;-65
2022/11/28 06:18:54;;;;;;;35.28;24.58;;;;;;;;;;5094813;28;20229;-66
2022/11/28 06:21:20;;;;;;;31.20;21.92;;;;;;;;;;5094732;28;20024;-66
2022/11/28 06:23:45;;;;;;;30.25;21.35;;;;;;;;;;5095820;28;20047;-67
2022/11/28 06:26:11;;;;;;;30.27;21.63;;;;;;;;;;5095240;28;20024;-67
2022/11/28 06:28:37;;;;;;;35.35;26.25;;;;;;;;;;5095740;28;20071;-66
2022/11/28 06:31:03;;;;;;;29.58;20.35;;;;;;;;;;5095752;28;20195;-66
2022/11/28 06:33:29;;;;;;;29.85;19.90;;;;;;;;;;5095109;28;20024;-67
2022/11/28 06:36:01;;;;;;;28.60;19.15;;;;;;;;;;5095470;28;20016;-67
2022/11/28 06:38:27;;;;;;;39.95;28.70;;;;;;;;;;5094756;28;20043;-67
2022/11/28 06:40:59;;;;;;;32.38;23.42;;;;;;;;;;5095605;28;20028;-67
2022/11/28 06:43:25;;;;;;;29.25;21.73;;;;;;;;;;5095534;28;20089;-66
2022/11/28 06:45:54;;;;;;;27.50;18.52;;;;;;;;;;5095174;28;20020;-65
2022/11/28 06:48:21;;;;;;;27.70;20.02;;;;;;;;;;5095623;28;20032;-66
2022/11/28 06:50:46;;;;;;;26.77;18.20;;;;;;;;;;5075691;28;20451;-65
2022/11/28 06:53:12;;;;;;;33.65;21.98;;;;;;;;;;5094391;28;20065;-66
2022/11/28 06:55:37;;;;;;;27.15;19.38;;;;;;;;;;5095035;28;20521;-65
2022/11/28 06:58:03;;;;;;;29.08;19.85;;;;;;;;;;5095269;28;20031;-65
2022/11/28 07:00:28;;;;;;;30.73;20.73;;;;;;;;;;5095075;28;20073;-66
2022/11/28 07:02:53;;;;;;;30.15;20.73;;;;;;;;;;5092793;28;20124;-73
2022/11/28 07:05:20;;;;;;;35.92;22.60;;;;;;;;;;5093757;28;20028;-73
2022/11/28 07:07:46;;;;;;;37.33;25.10;;;;;;;;;;5094300;28;20032;-72
2022/11/28 07:10:11;;;;;;;35.70;23.52;;;;;;;;;;5076082;28;20068;-73
2022/11/28 07:12:37;;;;;;;32.08;22.25;;;;;;;;;;5059480;28;20039;-73
2022/11/28 07:15:02;;;;;;;33.67;22.42;;;;;;;;;;5094263;28;20020;-73
2022/11/28 07:17:28;;;;;;;29.90;20.50;;;;;;;;;;5094375;28;20363;-72
2022/11/28 07:19:53;;;;;;;27.83;18.50;;;;;;;;;;5076385;28;20534;-73
2022/11/28 07:22:19;;;;;;;30.40;19.55;;;;;;;;;;5094829;28;20120;-72
2022/11/28 07:24:45;;;;;;;33.88;20.25;;;;;;;;;;5094479;28;20012;-73
2022/11/28 07:27:10;;;;;;;38.28;23.00;;;;;;;;;;5094759;28;20028;-73
2022/11/28 07:29:36;;;;;;;35.70;22.45;;;;;;;;;;5094341;28;20387;-74
2022/11/28 07:32:06;;;;;;;36.13;22.27;;;;;;;;;;5094641;28;20039;-73
2022/11/28 07:34:31;;;;;;;41.00;22.95;;;;;;;;;;5094905;28;20032;-73
2022/11/28 07:36:57;;;;;;;39.05;21.88;;;;;;;;;;5076537;28;20027;-73
2022/11/28 07:39:30;;;;;;;34.30;20.73;;;;;;;;;;5079277;23;20043;-71
2022/11/28 07:41:56;;;;;;;35.15;21.30;;;;;;;;;;5032536;28;20103;-65
2022/11/28 07:44:21;;;;;;;30.95;20.17;;;;;;;;;;5034600;28;20410;-66
2022/11/28 07:46:46;;;;;;;35.10;20.98;;;;;;;;;;5016441;28;20057;-67
2022/11/28 07:49:12;;;;;;;33.25;22.15;;;;;;;;;;5031862;28;20021;-66
2022/11/28 07:51:38;;;;;;;32.13;20.17;;;;;;;;;;5033937;28;20025;-66
2022/11/28 07:54:04;;;;;;;26.95;19.25;;;;;;;;;;5033943;28;20471;-66
2022/11/28 07:56:31;;;;;;;31.85;18.77;;;;;;;;;;5033846;28;20033;-66
2022/11/28 07:58:58;;;;;;;28.83;18.58;;;;;;;;;;5033831;28;20026;-66
2022/11/28 08:01:25;;;;;;;29.42;18.33;;;;;;;;;;5016117;28;20033;-66
2022/11/28 08:03:51;;;;;;;35.78;21.00;;;;;;;;;;5033767;28;20522;-66
2022/11/28 08:06:17;;;;;;;29.23;18.63;;;;;;;;;;5016185;28;20022;-66
2022/11/28 08:08:44;;;;;;;27.48;18.38;;;;;;;;;;5015953;28;20045;-65
2022/11/28 08:11:09;;;;;;;27.15;17.98;;;;;;;;;;5033640;28;20033;-66
2022/11/28 08:13:35;;;;;;;30.55;20.38;;;;;;;;;;5033935;28;20022;-66
2022/11/28 08:16:08;;;;;;;27.50;18.77;;;;;;;;;;5079793;22;20055;-66
2022/11/28 08:18:34;;;;;;;24.80;17.27;;;;;;;;;;5093998;28;20044;-67
2022/11/28 08:21:07;;;;;;;27.50;17.45;;;;;;;;;;5093713;28;20047;-66
2022/11/28 08:23:33;;;;;;;29.27;19.23;;;;;;;;;;5075622;28;20131;-66
2022/11/28 08:26:00;;;;;;;27.83;18.73;;;;;;;;;;5093631;28;20098;-67
2022/11/28 08:28:25;;;;;;;25.27;17.73;;;;;;;;;;5093664;28;20050;-66
2022/11/28 08:30:50;;;;;;;31.92;20.73;;;;;;;;;;5093834;28;20099;-66
2022/11/28 08:33:16;;;;;;;30.02;20.50;;;;;;;;;;5094154;28;20424;-66
2022/11/28 08:35:41;;;;;;;30.85;21.42;;;;;;;;;;5093557;28;20458;-65
2022/11/28 08:38:06;;;;;;;27.90;19.70;;;;;;;;;;5093807;28;20085;-66
2022/11/28 08:40:32;;;;;;;28.30;18.38;;;;;;;;;;5093498;28;20020;-66
2022/11/28 08:42:57;;;;;;;32.38;21.60;;;;;;;;;;5093505;28;20039;-66
2022/11/28 08:45:23;;;;;;;155.38;76.78;;;;;;;;;;5093484;28;20012;-66
2022/11/28 08:47:48;;;;;;;169.45;81.43;;;;;;;;;;5075332;28;20028;-65
2022/11/28 08:50:13;;;;;;;60.28;37.72;;;;;;;;;;5093658;28;20028;-66
2022/11/28 08:52:39;;;;;;;51.75;33.25;;;;;;;;;;5093931;28;20050;-66
2022/11/28 08:55:04;;;;;;;81.18;49.15;;;;;;;;;;5075972;28;20087;-66
2022/11/28 08:57:29;;;;;;;46.75;30.83;;;;;;;;;;5093622;28;20466;-66
2022/11/28 08:59:55;;;;;;;84.88;48.38;;;;;;;;;;5093650;28;20020;-65
2022/11/28 09:02:20;;;;;;;42.33;24.73;;;;;;;;;;5097779;28;20028;-66
2022/11/28 09:04:46;;;;;;;31.92;19.88;;;;;;;;;;5097186;28;20027;-66
2022/11/28 09:07:11;;;;;;;36.13;22.20;;;;;;;;;;5097093;28;20036;-66
2022/11/28 09:09:36;;;;;;;28.80;18.42;;;;;;;;;;5097567;28;20028;-66
2022/11/28 09:12:02;;;;;;;56.30;34.95;;;;;;;;;;5097002;28;20031;-66
2022/11/28 09:14:27;;;;;;;44.60;31.42;;;;;;;;;;5097052;28;20020;-73
2022/11/28 09:16:53;;;;;;;41.25;30.27;;;;;;;;;;5096855;28;20085;-72
2022/11/28 09:19:18;;;;;;;35.15;28.00;;;;;;;;;;5097172;28;20031;-73
2022/11/28 09:21:44;;;;;;;54.22;43.42;;;;;;;;;;5096833;28;20036;-73
2022/11/28 09:24:10;;;;;;;33.33;21.10;;;;;;;;;;5079007;28;20055;-73
2022/11/28 09:26:35;;;;;;;39.63;23.65;;;;;;;;;;5096809;28;20032;-73
2022/11/28 09:29:01;;;;;;;32.72;22.50;;;;;;;;;;5096947;28;20020;-73
2022/11/28 09:31:26;;;;;;;28.55;17.83;;;;;;;;;;5097248;28;20458;-72
2022/11/28 09:33:52;;;;;;;41.00;25.52;;;;;;;;;;5078518;28;20521;-73
2022/11/28 09:36:18;;;;;;;37.70;26.17;;;;;;;;;;5096608;28;20039;-73
2022/11/28 09:38:44;;;;;;;28.98;18.20;;;;;;;;;;5097154;28;20099;-72
2022/11/28 09:41:32;;;;;;;28.05;18.73;;;;;;;;;;5096512;28;20116;-72
2022/11/28 09:44:01;;;;;;;32.95;20.75;;;;;;;;;;5070190;28;20423;-73
2022/11/28 09:46:28;;;;;;;45.45;29.02;;;;;;;;;;5096706;28;20012;-73
2022/11/28 09:48:56;;;;;;;22.60;14.70;;;;;;;;;;5096286;28;20024;-73
2022/11/28 09:51:45;;;;;;;35.67;20.60;;;;;;;;;;5096308;28;20077;-73
2022/11/28 09:54:19;;;;;;;23.30;16.17;;;;;;;;;;5085368;28;20108;-72
2022/11/28 09:56:47;;;;;;;36.05;22.70;;;;;;;;;;5096477;28;20031;-73
2022/11/28 09:59:21;;;;;;;27.80;19.38;;;;;;;;;;5078372;28;20058;-73
2022/11/28 10:02:07;;;;;;;35.05;21.25;;;;;;;;;;5096094;28;20470;-73
2022/11/28 10:04:32;;;;;;;22.45;15.10;;;;;;;;;;5081608;28;20044;-72
2022/11/28 10:07:05;;;;;;;18.95;13.23;;;;;;;;;;5096334;28;20039;-72
2022/11/28 10:09:48;;;;;;;32.00;18.52;;;;;;;;;;5096478;28;20153;-72
2022/11/28 10:12:19;;;;;;;34.03;23.02;;;;;;;;;;5099207;22;20064;-73
2022/11/28 10:15:03;;;;;;;24.52;19.13;;;;;;;;;;5096190;28;20016;-73
2022/11/28 10:17:29;;;;;;;113.45;53.35;;;;;;;;;;5094956;28;20032;-73
2022/11/28 10:20:11;;;;;;;77.25;37.72;;;;;;;;;;5095744;28;20023;-73
2022/11/28 10:22:40;;;;;;;205.98;160.23;;;;;;;;;;5096013;28;20064;-73
2022/11/28 10:25:15;;;;;;;84.78;54.90;;;;;;;;;;5095634;28;20020;-73
2022/11/28 10:27:41;;;;;;;91.43;46.53;;;;;;;;;;5095632;28;20555;-73
2022/11/28 10:30:09;;;;;;;95.40;45.92;;;;;;;;;;5095479;28;20070;-73
2022/11/28 10:32:42;;;;;;;101.50;50.30;;;;;;;;;;5096034;28;20429;-73
2022/11/28 10:35:20;;;;;;;88.18;40.22;;;;;;;;;;5095477;28;20181;-73
2022/11/28 10:37:51;;;;;;;36.33;20.20;;;;;;;;;;5077701;28;20043;-72
2022/11/28 10:40:22;;;;;;;32.13;17.38;;;;;;;;;;5094494;28;20029;-73
2022/11/28 10:42:53;;;;;;;135.18;65.45;;;;;;;;;;5094400;28;20036;-72
2022/11/28 10:45:22;;;;;;;45.40;21.90;;;;;;;;;;5095577;28;20099;-72
2022/11/28 10:47:59;;;;;;;40.03;23.52;;;;;;;;;;5095505;28;20024;-73
2022/11/28 10:50:32;;;;;;;61.47;37.92;;;;;;;;;;5095016;28;20073;-65
2022/11/28 10:53:00;;;;;;;106.30;61.72;;;;;;;;;;5095415;28;20035;-66
2022/11/28 10:55:25;;;;;;;52.35;27.42;;;;;;;;;;5077000;28;20070;-67
2022/11/28 10:58:06;;;;;;;100.60;50.65;;;;;;;;;;5076908;28;20032;-66
2022/11/28 11:00:31;;;;;;;;;;;;;;;;;;5095698;28;20024;-65
2022/11/28 11:02:59;;;;;;;41.97;24.10;;;;;;;;;;5095238;28;20247;-67
2022/11/28 11:05:26;;;;;;;122.82;67.10;;;;;;;;;;5095183;28;20035;-65
2022/11/28 11:07:51;;;;;;;56.03;30.95;;;;;;;;;;5077304;28;20458;-65
2022/11/28 11:10:16;;;;;;;70.32;43.35;;;;;;;;;;5094728;28;20040;-66
2022/11/28 11:12:42;;;;;;;35.55;24.70;;;;;;;;;;5102791;28;20036;-65
2022/11/28 11:15:15;;;;;;;23.08;16.30;;;;;;;;;;5096752;28;20448;-66
2022/11/28 11:17:41;;;;;;;23.05;15.65;;;;;;;;;;5115305;28;20027;-66
2022/11/28 11:20:21;;;;;;;21.58;15.80;;;;;;;;;;5115269;28;20089;-65
2022/11/28 11:22:58;;;;;;;30.17;16.23;;;;;;;;;;5115136;28;20036;-66
2022/11/28 11:25:24;;;;;;;22.38;14.95;;;;;;;;;;5114886;28;20137;-65
2022/11/28 11:27:51;;;;;;;34.80;23.05;;;;;;;;;;5114868;28;20465;-65
2022/11/28 11:30:24;;;;;;;15.85;12.65;;;;;;;;;;5096497;28;20031;-65
2022/11/28 11:32:50;;;;;;;15.38;11.85;;;;;;;;;;5096480;28;20020;-66
2022/11/28 11:35:35;;;;;;;21.05;14.50;;;;;;;;;;5114691;28;20080;-66
2022/11/28 11:38:24;;;;;;;17.92;12.82;;;;;;;;;;5114927;28;20100;-65
2022/11/28 11:40:50;;;;;;;18.20;12.60;;;;;;;;;;5114907;28;20111;-65
2022/11/28 11:43:26;;;;;;;15.80;11.57;;;;;;;;;;5114557;28;20107;-65
2022/11/28 11:46:03;;;;;;;15.95;11.65;;;;;;;;;;5114550;28;20031;-65
2022/11/28 11:48:36;;;;;;;14.57;11.27;;;;;;;;;;5096229;28;20027;-65
2022/11/28 11:51:01;;;;;;;16.73;10.48;;;;;;;;;;5114546;28;20107;-65
2022/11/28 11:53:27;;;;;;;19.80;12.75;;;;;;;;;;5114715;28;20522;-66
2022/11/28 11:55:53;;;;;;;16.75;11.90;;;;;;;;;;5096040;28;20377;-65
2022/11/28 11:58:20;;;;;;;16.25;12.07;;;;;;;;;;5114353;28;20012;-66
2022/11/28 12:00:46;;;;;;;17.95;12.75;;;;;;;;;;5114325;28;20024;-66
2022/11/28 12:03:25;;;;;;;17.95;10.75;;;;;;;;;;5096371;28;20347;-65
2022/11/28 12:05:53;;;;;;;15.07;10.27;;;;;;;;;;5114780;28;20062;-65
2022/11/28 12:08:30;;;;;;;21.33;14.70;;;;;;;;;;5114233;28;20019;-66
2022/11/28 12:11:01;;;;;;;87.38;42.60;;;;;;;;;;5114258;28;20031;-65
2022/11/28 12:13:27;;;;;;;46.25;25.67;;;;;;;;;;5114021;28;20115;-66
2022/11/28 12:16:07;;;;;;;216.55;140.75;;;;;;;;;;5114688;28;20069;-65
2022/11/28 12:18:44;;;;;;;202.48;108.88;;;;;;;;;;5078989;28;20084;-65
2022/11/28 12:21:12;;;;;;;54.90;28.52;;;;;;;;;;5114637;28;20083;-65
2022/11/28 12:23:42;;;;;;;227.50;100.82;;;;;;;;;;5114347;28;20043;-66
2022/11/28 12:26:22;;;;;;;107.40;50.58;;;;;;;;;;5114072;28;20031;-66
2022/11/28 12:29:07;;;;;;;170.60;72.63;;;;;;;;;;5095739;28;20059;-66
2022/11/28 12:31:51;;;;;;;403.58;169.35;;;;;;;;;;5113956;28;20040;-65
2022/11/28 12:34:30;;;;;;;403.38;179.07;;;;;;;;;;5095746;28;20042;-66
2022/11/28 12:37:05;;;;;;;273.77;152.40;;;;;;;;;;5117694;28;20019;-66
2022/11/28 12:39:30;;;;;;;332.45;217.63;;;;;;;;;;5118093;28;20048;-65
2022/11/28 12:41:59;;;;;;;53.53;37.28;;;;;;;;;;5118045;28;20030;-65
2022/11/28 12:44:34;;;;;;;27.73;21.45;;;;;;;;;;5118258;28;20052;-66
2022/11/28 12:47:03;;;;;;;199.88;93.60;;;;;;;;;;5117921;28;20039;-66
2022/11/28 12:49:35;;;;;;;141.55;88.60;;;;;;;;;;5100408;28;20028;-66
2022/11/28 12:52:16;;;;;;;168.65;78.72;;;;;;;;;;5118365;28;20562;-66
2022/11/28 12:54:47;;;;;;;66.28;39.35;;;;;;;;;;5118082;28;20050;-65
2022/11/28 12:57:21;;;;;;;65.15;35.72;;;;;;;;;;5099859;28;20027;-66
2022/11/28 13:00:19;;;;;;;251.75;158.23;;;;;;;;;;5117845;28;20031;-65
2022/11/28 13:03:02;;;;;;;184.70;61.40;;;;;;;;;;5055461;28;20100;-64
2022/11/28 13:05:34;;;;;;;88.15;38.15;;;;;;;;;;5099320;28;20384;-66
2022/11/28 13:08:18;;;;;;;40.30;21.73;;;;;;;;;;5117832;28;20035;-66
2022/11/28 13:10:48;;;;;;;31.67;18.48;;;;;;;;;;5117699;28;20351;-66
2022/11/28 13:13:33;;;;;;;95.90;45.25;;;;;;;;;;5117283;28;20048;-66
2022/11/28 13:16:17;;;;;;;23.40;15.57;;;;;;;;;;5117714;28;20028;-65
2022/11/28 13:18:45;;;;;;;22.75;16.25;;;;;;;;;;5117659;28;20435;-67
2022/11/28 13:21:22;;;;;;;45.83;22.77;;;;;;;;;;5116901;28;20019;-66
2022/11/28 13:23:47;;;;;;;136.05;57.60;;;;;;;;;;5117274;28;20035;-65
2022/11/28 13:26:16;;;;;;;63.40;32.92;;;;;;;;;;5098940;28;20381;-65
2022/11/28 13:28:45;;;;;;;33.22;18.00;;;;;;;;;;5117175;28;20031;-67
2022/11/28 13:31:16;;;;;;;83.70;42.22;;;;;;;;;;5099568;28;20028;-67
2022/11/28 13:33:52;;;;;;;81.03;41.47;;;;;;;;;;5098374;28;20051;-67
2022/11/28 13:36:37;;;;;;;51.63;29.55;;;;;;;;;;5116422;28;20038;-69
2022/11/28 13:39:18;;;;;;;31.40;18.70;;;;;;;;;;5098017;28;20484;-69
2022/11/28 13:41:58;;;;;;;55.05;32.55;;;;;;;;;;5116927;28;20054;-68
2022/11/28 13:44:26;;;;;;;88.38;53.30;;;;;;;;;;5116853;28;20028;-75
2022/11/28 13:46:52;;;;;;;171.80;99.80;;;;;;;;;;5116619;28;20032;-75
2022/11/28 13:49:22;;;;;;;81.57;47.63;;;;;;;;;;5116693;28;20096;-74
2022/11/28 13:52:05;;;;;;;114.75;72.47;;;;;;;;;;5116218;28;20028;-74
2022/11/28 13:54:31;;;;;;;73.25;48.13;;;;;;;;;;5096168;28;20122;-75
2022/11/28 13:57:09;;;;;;;61.45;41.05;;;;;;;;;;5097248;28;20518;-74
2022/11/28 13:59:35;;;;;;;31.73;23.52;;;;;;;;;;5115131;28;20027;-75
2022/11/28 14:02:03;;;;;;;284.27;167.88;;;;;;;;;;5115349;28;20067;-73
2022/11/28 14:04:29;;;;;;;39.97;29.30;;;;;;;;;;5115412;28;20023;-73
2022/11/28 14:07:03;;;;;;;37.25;30.63;;;;;;;;;;5096618;28;20397;-75
2022/11/28 14:09:47;;;;;;;21.65;16.98;;;;;;;;;;5096859;28;20028;-73
2022/11/28 14:12:17;;;;;;;40.72;29.35;;;;;;;;;;5114872;28;20478;-76
2022/11/28 14:14:53;;;;;;;45.95;33.75;;;;;;;;;;5096621;28;20047;-74
2022/11/28 14:17:37;;;;;;;68.78;42.80;;;;;;;;;;5095868;28;20473;-74
2022/11/28 14:20:23;;;;;;;37.25;24.08;;;;;;;;;;5113915;28;20504;-74
2022/11/28 14:23:04;;;;;;;30.42;21.40;;;;;;;;;;5113560;28;20417;-74
2022/11/28 14:25:32;;;;;;;22.80;16.73;;;;;;;;;;5114551;28;20055;-74
2022/11/28 14:27:59;;;;;;;45.28;30.63;;;;;;;;;;5095566;28;20023;-74
2022/11/28 14:30:30;;;;;;;93.32;54.10;;;;;;;;;;5096055;28;20078;-76